This is the latest recevied weather packets stored in our database for station/object IK0TIX. If no packets are shown the sender has not sent any weather packets the latest 10 day(s).
| Time | Temp. | Humidity | Pressure | Rain* | Wind** | Luminosity | Snow |
|---|---|---|---|---|---|---|---|
| 1777883980 | 22.22° C | 52% | 1020.9 hPa | 0 mm | - | - | - |
| 1777883080 | 21.11° C | 57% | 1021 hPa | 0 mm | - | - | - |
| 1777882489 | 21.11° C | 59% | 1021.1 hPa | 0 mm | - | - | - |
| 1777882205 | 20.56° C | 61% | 1021.1 hPa | 0 mm | - | - | - |
| 1777881567 | 20° C | 63% | 1021.1 hPa | 0 mm | - | - | - |
| 1777880686 | 19.44° C | 66% | 1021 hPa | 0 mm | - | - | - |
| 1777880094 | 18.89° C | 68% | 1021 hPa | 0 mm | - | - | - |
| 1777878896 | 17.78° C | 71% | 1020.9 hPa | 0 mm | - | - | - |
| 1777877671 | 16.67° C | 73% | 1020.8 hPa | 0 mm | - | - | - |
| 1777876483 | 16.11° C | 74% | 1020.6 hPa | 0 mm | - | - | - |
| 1777874392 | 15.56° C | 75% | 1020.5 hPa | 0 mm | - | - | - |
| 1777868970 | 13.33° C | 77% | 1020 hPa | 0 mm | - | - | - |
| 1777867171 | 13.89° C | 76% | 1019.9 hPa | 0 mm | - | - | - |
| 1777863283 | 13.89° C | 76% | 1019.8 hPa | 0 mm | - | - | - |
| 1777862084 | 14.44° C | 77% | 1019.9 hPa | 0 mm | - | - | - |
| 1777861791 | 14.44° C | 76% | 1019.9 hPa | 0 mm | - | - | - |
| 1777861197 | 14.44° C | 75% | 1019.7 hPa | 0 mm | - | - | - |
| 1777860872 | 15° C | 75% | 1019.7 hPa | 0 mm | - | - | - |
| 1777859709 | 15° C | 76% | 1019.8 hPa | 0 mm | - | - | - |
| 1777859074 | 15.56° C | 76% | 1019.8 hPa | 0 mm | - | - | - |
| 1777857868 | 15.56° C | 76% | 1019.8 hPa | 0 mm | - | - | - |
| 1777857287 | 15.56° C | 76% | 1019.8 hPa | 0 mm | - | - | - |
| 1777856996 | 15.56° C | 76% | 1019.8 hPa | 0 mm | - | - | - |
| 1777854301 | 15.56° C | 76% | 1019.8 hPa | 0 mm | - | - | - |
| 1777853694 | 15.56° C | 76% | 1019.8 hPa | 0 mm | - | - | - |
* Rain latest hour (hover to see other rain measurements)
** Current wind speed in m/s (hover to see current wind gust speed)